Time;durP1;ratioP1;P1;durP2;ratioP2;P2;SDS_P1;SDS_P2;PMS_P1;PMS_P2;Temp;Humidity;BMP_temperature;BMP_pressure;BME280_temperature;BME280_humidity;BME280_pressure;Samples;Min_cycle;Max_cycle;Signal;HPM_P1;HPM_P2
2022/09/15 00:00:50;;;;;;;8.23;2.35;;;14.30;99.90;;;;;;5066985;28;20486;-74
2022/09/15 00:03:17;;;;;;;7.13;2.28;;;14.40;99.90;;;;;;5065459;28;20116;-73
2022/09/15 00:05:43;;;;;;;6.68;2.03;;;14.30;99.90;;;;;;5065269;28;20120;-73
2022/09/15 00:08:09;;;;;;;6.68;1.80;;;14.30;99.90;;;;;;5045214;28;20098;-73
2022/09/15 00:10:34;;;;;;;8.57;1.77;;;14.40;99.90;;;;;;5065395;28;20044;-73
2022/09/15 00:13:00;;;;;;;8.35;1.88;;;14.40;99.90;;;;;;5065629;28;20045;-73
2022/09/15 00:15:26;;;;;;;7.10;1.35;;;14.40;99.90;;;;;;5064802;28;20037;-73
2022/09/15 00:17:52;;;;;;;5.38;1.35;;;14.40;99.90;;;;;;5062799;28;20109;-73
2022/09/15 00:20:19;;;;;;;8.73;1.40;;;14.40;99.90;;;;;;5065707;28;20543;-73
2022/09/15 00:22:46;;;;;;;13.27;1.73;;;14.40;99.90;;;;;;5065136;28;20466;-73
2022/09/15 00:25:13;;;;;;;4.85;1.40;;;14.40;99.90;;;;;;5066896;28;20115;-73
2022/09/15 00:27:39;;;;;;;9.90;1.73;;;14.50;99.90;;;;;;5064416;28;20040;-73
2022/09/15 00:30:06;;;;;;;7.78;1.58;;;14.50;99.90;;;;;;5065029;28;20044;-73
2022/09/15 00:32:32;;;;;;;8.43;1.55;;;14.50;99.90;;;;;;5064322;28;20402;-73
2022/09/15 00:34:58;;;;;;;10.82;1.60;;;14.50;99.90;;;;;;5063212;28;20040;-73
2022/09/15 00:37:24;;;;;;;8.98;1.50;;;14.50;99.90;;;;;;5062461;28;20048;-73
2022/09/15 00:39:49;;;;;;;8.18;1.25;;;14.50;99.90;;;;;;5063313;28;20045;-73
2022/09/15 00:42:17;;;;;;;8.30;1.52;;;14.50;99.90;;;;;;5058532;28;20125;-73
2022/09/15 00:44:52;;;;;;;7.45;1.23;;;14.50;99.90;;;;;;5066016;28;20166;-73
2022/09/15 00:47:22;;;;;;;3.72;1.13;;;14.50;99.90;;;;;;5065661;28;20486;-73
2022/09/15 00:49:53;;;;;;;7.20;1.25;;;14.60;99.90;;;;;;5068577;28;20263;-73
2022/09/15 00:52:22;;;;;;;6.45;1.40;;;14.50;99.90;;;;;;5070643;28;20056;-73
2022/09/15 00:55:01;;;;;;;7.30;1.20;;;14.50;99.90;;;;;;5064492;28;20206;-73
2022/09/15 00:57:48;;;;;;;9.35;1.13;;;14.60;99.90;;;;;;5064850;28;20060;-73
2022/09/15 01:00:17;;;;;;;6.68;0.93;;;14.60;99.90;;;;;;5064597;28;20036;-73
2022/09/15 01:02:45;;;;;;;6.38;1.00;;;14.50;99.90;;;;;;5063891;28;20582;-73
2022/09/15 01:05:13;;;;;;;4.70;1.17;;;14.50;99.90;;;;;;5064330;28;20044;-73
2022/09/15 01:07:46;;;;;;;8.98;1.45;;;14.50;99.90;;;;;;5063543;28;20493;-72
2022/09/15 01:10:24;;;;;;;7.50;1.60;;;14.50;99.90;;;;;;5046978;28;20041;-74
2022/09/15 01:12:51;;;;;;;6.78;1.20;;;14.50;99.90;;;;;;5065982;28;20106;-73
2022/09/15 01:15:17;;;;;;;6.13;1.80;;;14.50;99.90;;;;;;5047758;28;20053;-73
2022/09/15 01:18:17;;;;;;;5.97;1.10;;;14.50;99.90;;;;;;5064916;28;20123;-73
2022/09/15 01:20:59;;;;;;;5.60;1.10;;;14.50;99.90;;;;;;5062074;28;20390;-73
2022/09/15 01:23:44;;;;;;;9.13;1.83;;;14.50;99.90;;;;;;5063853;28;20083;-72
2022/09/15 01:26:37;;;;;;;7.45;1.40;;;14.50;99.90;;;;;;5064335;28;20127;-73
2022/09/15 01:29:42;;;;;;;8.05;1.52;;;14.50;99.90;;;;;;5064752;28;20071;-73
2022/09/15 01:35:40;;;;;;;6.63;1.30;;;14.50;99.90;;;;;;5062694;28;20769;-73
2022/09/15 01:38:41;;;;;;;7.32;1.00;;;14.50;99.90;;;;;;5063780;28;20032;-73
2022/09/15 01:41:31;;;;;;;7.80;1.20;;;14.50;99.90;;;;;;5062398;28;20048;-73
2022/09/15 01:43:59;;;;;;;9.63;1.33;;;14.50;99.90;;;;;;5063316;28;20048;-73
2022/09/15 01:46:29;;;;;;;11.18;1.50;;;14.50;99.90;;;;;;5061720;28;20044;-74
2022/09/15 01:48:56;;;;;;;8.88;1.40;;;14.50;99.90;;;;;;5064534;28;20036;-73
2022/09/15 01:51:24;;;;;;;7.50;1.25;;;14.50;99.90;;;;;;5065264;28;20095;-73
2022/09/15 01:53:52;;;;;;;7.55;1.20;;;14.40;99.90;;;;;;5071100;28;20048;-73
2022/09/15 01:56:18;;;;;;;15.20;1.38;;;14.40;99.90;;;;;;5064017;28;20472;-73
2022/09/15 01:58:44;;;;;;;7.20;1.20;;;14.40;99.90;;;;;;5050208;28;20048;-72
2022/09/15 02:01:18;;;;;;;8.98;1.58;;;14.40;99.90;;;;;;5047454;28;20713;-72
2022/09/15 02:04:17;;;;;;;6.30;1.40;;;14.40;99.90;;;;;;5065829;28;20032;-73
2022/09/15 02:07:01;;;;;;;9.70;1.27;;;14.40;99.90;;;;;;5063568;28;20119;-73
2022/09/15 02:09:41;;;;;;;5.97;1.13;;;14.40;99.90;;;;;;5064407;28;20127;-73
2022/09/15 02:12:26;;;;;;;8.02;1.50;;;14.40;99.90;;;;;;5062898;28;20037;-73
2022/09/15 02:15:04;;;;;;;9.00;1.20;;;14.40;99.90;;;;;;5064791;28;20044;-73
2022/09/15 02:17:34;;;;;;;9.52;1.30;;;14.40;99.90;;;;;;5064976;28;20059;-73
2022/09/15 02:20:14;;;;;;;7.22;1.15;;;14.50;99.90;;;;;;5066284;28;20405;-72
2022/09/15 02:22:44;;;;;;;8.30;1.00;;;14.40;99.90;;;;;;5065417;28;20036;-73
2022/09/15 02:25:15;;;;;;;6.35;1.40;;;14.40;99.90;;;;;;5065540;28;20166;-73
2022/09/15 02:27:46;;;;;;;7.85;0.90;;;14.30;99.90;;;;;;5065231;28;20458;-73
2022/09/15 02:30:15;;;;;;;9.02;1.15;;;14.30;99.90;;;;;;5047866;28;20059;-73
2022/09/15 02:33:09;;;;;;;7.85;1.10;;;14.30;99.90;;;;;;5042089;28;20393;-73
2022/09/15 02:35:36;;;;;;;7.85;1.15;;;14.30;99.90;;;;;;5040175;28;20055;-73
2022/09/15 02:38:05;;;;;;;10.20;1.00;;;14.30;99.90;;;;;;5046288;28;20056;-73
2022/09/15 02:40:31;;;;;;;5.40;1.00;;;14.30;99.90;;;;;;5064498;28;20678;-72
2022/09/15 02:43:01;;;;;;;5.32;0.82;;;14.30;99.90;;;;;;5069475;28;20123;-73
2022/09/15 02:45:29;;;;;;;8.32;1.38;;;14.30;99.90;;;;;;5065693;28;20048;-72
2022/09/15 02:47:56;;;;;;;3.25;0.68;;;14.30;99.90;;;;;;5067959;28;20462;-73
2022/09/15 02:50:25;;;;;;;5.45;0.88;;;14.30;99.90;;;;;;5066218;28;20044;-72
2022/09/15 02:52:54;;;;;;;4.47;1.00;;;14.30;99.90;;;;;;5075940;28;20413;-73
2022/09/15 02:55:20;;;;;;;5.10;0.75;;;14.30;99.90;;;;;;5063657;28;20044;-73
2022/09/15 02:57:46;;;;;;;6.68;1.10;;;14.30;99.90;;;;;;5056742;28;21001;-73
2022/09/15 03:00:12;;;;;;;5.78;0.90;;;14.30;99.90;;;;;;5066784;28;20029;-72
2022/09/15 03:02:39;;;;;;;9.68;1.33;;;14.30;99.90;;;;;;5066491;28;20105;-72
2022/09/15 03:05:06;;;;;;;7.07;0.90;;;14.30;99.90;;;;;;5067116;28;20047;-73
2022/09/15 03:07:31;;;;;;;7.10;1.08;;;14.30;99.90;;;;;;5069009;28;20470;-73
2022/09/15 03:09:58;;;;;;;7.75;1.10;;;14.30;99.90;;;;;;5065311;28;20086;-73
2022/09/15 03:12:24;;;;;;;4.65;0.90;;;14.20;99.90;;;;;;5067543;28;20471;-72
2022/09/15 03:14:50;;;;;;;7.00;0.95;;;14.30;99.90;;;;;;5069738;28;20052;-73
2022/09/15 03:17:16;;;;;;;9.30;1.15;;;14.30;99.90;;;;;;5067733;28;20051;-72
2022/09/15 03:19:44;;;;;;;3.38;0.80;;;14.20;99.90;;;;;;5065607;28;20044;-72
2022/09/15 03:22:10;;;;;;;5.53;0.90;;;14.20;99.90;;;;;;5068330;28;20052;-72
2022/09/15 03:24:37;;;;;;;6.82;0.93;;;14.20;99.90;;;;;;5067145;28;20064;-72
2022/09/15 03:27:04;;;;;;;7.30;1.02;;;14.20;99.90;;;;;;5065195;28;20501;-72
2022/09/15 03:29:29;;;;;;;6.93;1.10;;;14.20;99.90;;;;;;5067531;28;20036;-72
2022/09/15 03:31:56;;;;;;;5.50;0.98;;;14.20;99.90;;;;;;5068835;28;20032;-73
2022/09/15 03:34:21;;;;;;;8.73;1.30;;;14.20;99.90;;;;;;5065672;28;20421;-73
2022/09/15 03:36:47;;;;;;;9.38;1.15;;;14.20;99.90;;;;;;5065567;28;20280;-73
2022/09/15 03:39:14;;;;;;;8.73;1.08;;;14.20;99.90;;;;;;5066633;28;20060;-73
2022/09/15 03:41:39;;;;;;;8.20;1.02;;;14.20;99.90;;;;;;5065801;28;20041;-72
2022/09/15 03:44:05;;;;;;;11.00;1.10;;;14.20;99.90;;;;;;5066704;28;20040;-72
2022/09/15 03:46:31;;;;;;;7.60;1.27;;;14.20;99.90;;;;;;5072150;28;20068;-72
2022/09/15 03:48:56;;;;;;;5.47;0.98;;;14.20;99.90;;;;;;5066498;28;20125;-73
2022/09/15 03:51:23;;;;;;;9.15;1.23;;;14.20;99.90;;;;;;5065412;28;20033;-72
2022/09/15 03:53:49;;;;;;;5.88;0.88;;;14.20;99.90;;;;;;5064814;28;20067;-72
2022/09/15 03:56:25;;;;;;;6.88;1.30;;;14.20;99.90;;;;;;5066115;28;20076;-73
2022/09/15 03:58:51;;;;;;;6.43;1.15;;;14.20;99.90;;;;;;5067570;28;20046;-72
2022/09/15 04:01:18;;;;;;;8.25;1.33;;;14.10;99.90;;;;;;5066193;28;20115;-72
2022/09/15 04:03:44;;;;;;;11.55;1.50;;;14.20;99.90;;;;;;5068480;28;20051;-72
2022/09/15 04:06:09;;;;;;;9.45;1.67;;;14.20;99.90;;;;;;5064583;28;20115;-72
2022/09/15 04:08:35;;;;;;;7.85;1.40;;;14.10;99.90;;;;;;5066318;28;20131;-72
2022/09/15 04:11:09;;;;;;;9.18;1.42;;;14.10;99.90;;;;;;5068630;28;20048;-72
2022/09/15 04:13:36;;;;;;;9.60;1.55;;;14.10;99.90;;;;;;5084414;28;20052;-72
2022/09/15 04:16:05;;;;;;;9.00;1.83;;;14.10;99.90;;;;;;5067109;28;20416;-73
2022/09/15 04:18:32;;;;;;;7.93;1.48;;;14.10;99.90;;;;;;5066056;28;20076;-71
2022/09/15 04:21:05;;;;;;;5.80;1.20;;;14.00;99.90;;;;;;5067300;28;20052;-73
2022/09/15 04:23:32;;;;;;;9.57;1.42;;;14.00;99.90;;;;;;5065670;28;20052;-73
2022/09/15 04:26:04;;;;;;;8.52;1.05;;;14.10;99.90;;;;;;5067806;28;20120;-72
2022/09/15 04:28:34;;;;;;;11.98;1.45;;;14.00;99.90;;;;;;5050263;28;20405;-72
2022/09/15 04:31:12;;;;;;;9.07;1.50;;;14.00;99.90;;;;;;5068054;28;20036;-73
2022/09/15 04:33:39;;;;;;;8.70;1.50;;;14.00;99.90;;;;;;5066470;28;20055;-72
2022/09/15 04:36:11;;;;;;;6.90;1.40;;;14.00;99.90;;;;;;5063308;28;20041;-72
2022/09/15 04:38:37;;;;;;;6.30;1.10;;;14.00;99.90;;;;;;5063591;28;20060;-72
2022/09/15 04:41:04;;;;;;;7.53;1.30;;;14.00;99.90;;;;;;5065890;28;20115;-72
2022/09/15 04:43:30;;;;;;;15.50;1.67;;;14.00;99.90;;;;;;5063818;28;20051;-72
2022/09/15 04:45:56;;;;;;;9.43;1.15;;;14.00;99.90;;;;;;5062729;28;20047;-73
2022/09/15 04:48:22;;;;;;;7.25;1.10;;;14.00;99.90;;;;;;5064813;28;20481;-73
2022/09/15 04:50:49;;;;;;;9.63;1.20;;;14.00;99.90;;;;;;5064799;28;20409;-73
2022/09/15 04:53:15;;;;;;;15.35;1.60;;;14.00;99.90;;;;;;5066346;28;20072;-73
2022/09/15 04:55:41;;;;;;;8.35;1.63;;;14.00;99.90;;;;;;5046320;28;20086;-73
2022/09/15 04:58:07;;;;;;;8.82;1.40;;;14.00;99.90;;;;;;5064193;28;20080;-72
2022/09/15 05:00:41;;;;;;;7.38;1.52;;;14.10;99.90;;;;;;5063030;28;20083;-73
2022/09/15 05:03:08;;;;;;;6.70;1.38;;;13.90;99.90;;;;;;5070286;28;20086;-72
2022/09/15 05:05:34;;;;;;;10.27;1.42;;;14.00;99.90;;;;;;5063861;28;20564;-73
2022/09/15 05:07:59;;;;;;;8.50;1.20;;;14.00;99.90;;;;;;5063963;28;20094;-73
2022/09/15 05:10:25;;;;;;;7.32;1.35;;;14.00;99.90;;;;;;5061800;28;20067;-73
2022/09/15 05:12:52;;;;;;;7.78;1.27;;;14.00;99.90;;;;;;5059663;28;20053;-73
2022/09/15 05:15:18;;;;;;;9.20;1.25;;;13.90;99.90;;;;;;5065139;28;20040;-73
2022/09/15 05:17:44;;;;;;;8.13;1.42;;;13.90;99.90;;;;;;5056082;28;20101;-72
2022/09/15 05:20:09;;;;;;;13.07;1.70;;;13.90;99.90;;;;;;5055919;28;20053;-72
2022/09/15 05:22:35;;;;;;;7.13;1.30;;;13.90;99.90;;;;;;5062438;28;20040;-72
2022/09/15 05:25:01;;;;;;;8.40;1.23;;;13.80;99.90;;;;;;5056191;28;20072;-72
2022/09/15 05:27:29;;;;;;;7.00;1.35;;;13.80;99.90;;;;;;5050689;28;20493;-72
2022/09/15 05:29:55;;;;;;;7.25;1.13;;;13.80;99.90;;;;;;5049670;28;20063;-71
2022/09/15 05:32:21;;;;;;;10.00;1.20;;;13.90;99.90;;;;;;5045099;28;20052;-72
2022/09/15 05:34:46;;;;;;;7.05;1.38;;;13.80;99.90;;;;;;5050634;28;20523;-73
2022/09/15 05:37:12;;;;;;;9.73;1.70;;;13.70;99.90;;;;;;5053011;28;20590;-72
2022/09/15 05:39:39;;;;;;;5.82;1.33;;;13.70;99.90;;;;;;5054335;28;20041;-72
2022/09/15 05:42:06;;;;;;;11.02;1.10;;;13.70;99.90;;;;;;5063545;28;20041;-72
2022/09/15 05:44:32;;;;;;;8.93;1.25;;;13.70;99.90;;;;;;5036215;28;20129;-72
2022/09/15 05:46:58;;;;;;;7.65;1.35;;;13.60;99.90;;;;;;5072060;28;20052;-72
2022/09/15 05:49:24;;;;;;;7.20;1.20;;;13.60;99.90;;;;;;5064945;28;20097;-72
2022/09/15 05:51:49;;;;;;;8.38;1.05;;;13.60;99.90;;;;;;5060395;28;20083;-72
2022/09/15 05:54:15;;;;;;;6.38;1.30;;;13.60;99.90;;;;;;5054789;28;20473;-73
2022/09/15 05:56:41;;;;;;;7.60;1.17;;;13.60;99.90;;;;;;5051774;28;20071;-72
2022/09/15 05:59:06;;;;;;;8.32;0.90;;;13.60;99.90;;;;;;5059642;28;20049;-73
2022/09/15 06:01:32;;;;;;;5.70;1.33;;;13.60;99.90;;;;;;5056861;28;20141;-72
2022/09/15 06:03:58;;;;;;;5.07;1.42;;;13.60;99.90;;;;;;5062405;28;20177;-72
2022/09/15 06:06:25;;;;;;;8.65;1.27;;;13.60;99.90;;;;;;5062711;28;20196;-72
2022/09/15 06:08:55;;;;;;;7.07;1.35;;;13.60;99.90;;;;;;5042612;28;20079;-72
2022/09/15 06:11:25;;;;;;;5.97;1.50;;;13.60;99.90;;;;;;5060010;28;20437;-73
2022/09/15 06:13:50;;;;;;;12.90;1.42;;;13.60;99.90;;;;;;5059455;28;20052;-73
2022/09/15 06:16:21;;;;;;;7.53;1.13;;;13.70;99.90;;;;;;5060568;28;20045;-73
2022/09/15 06:18:50;;;;;;;8.73;1.65;;;13.70;99.90;;;;;;5060324;28;20397;-73
2022/09/15 06:21:21;;;;;;;7.30;1.00;;;13.70;99.90;;;;;;5042711;28;20037;-73
2022/09/15 06:23:52;;;;;;;;;;;13.80;99.90;;;;;;5062949;28;20456;-73
2022/09/15 06:26:18;;;;;;;9.05;1.38;;;13.80;99.90;;;;;;5061144;28;19924;-72
2022/09/15 06:28:54;;;;;;;7.20;1.13;;;14.00;99.90;;;;;;5055820;28;20041;-73
2022/09/15 06:31:21;;;;;;;8.13;1.25;;;13.80;99.90;;;;;;5060261;28;20067;-73
2022/09/15 06:33:52;;;;;;;6.72;1.27;;;13.90;99.90;;;;;;5059661;28;20040;-73
2022/09/15 06:36:20;;;;;;;9.68;1.25;;;13.90;99.90;;;;;;5057359;28;20071;-73
2022/09/15 06:38:46;;;;;;;4.80;1.10;;;14.10;99.90;;;;;;5056177;28;20048;-73
2022/09/15 06:41:13;;;;;;;8.52;1.23;;;14.00;99.90;;;;;;5058809;28;20037;-73
2022/09/15 06:43:39;;;;;;;7.97;1.00;;;14.00;99.90;;;;;;5059483;28;20052;-73
2022/09/15 06:46:18;;;;;;;5.38;0.95;;;14.00;99.90;;;;;;5061381;28;20041;-73
2022/09/15 06:48:44;;;;;;;7.13;1.15;;;14.00;99.90;;;;;;5067539;28;20094;-73
2022/09/15 06:51:12;;;;;;;7.05;0.90;;;14.10;99.90;;;;;;5055108;28;20676;-73
2022/09/15 06:53:39;;;;;;;9.63;1.33;;;14.10;99.90;;;;;;5054900;28;20547;-73
2022/09/15 06:56:07;;;;;;;7.57;0.88;;;14.20;99.90;;;;;;5041211;28;20088;-73
2022/09/15 06:58:34;;;;;;;8.65;1.15;;;14.10;99.90;;;;;;5055757;28;20052;-74
2022/09/15 07:01:08;;;;;;;6.32;0.90;;;14.20;99.90;;;;;;5059285;28;20067;-73
2022/09/15 07:03:35;;;;;;;5.70;1.00;;;14.20;99.90;;;;;;5059960;28;20048;-73
2022/09/15 07:06:02;;;;;;;7.03;1.20;;;14.30;99.90;;;;;;5058959;28;20052;-72
2022/09/15 07:08:29;;;;;;;9.00;1.25;;;14.20;99.90;;;;;;5058954;28;20398;-73
2022/09/15 07:10:55;;;;;;;7.50;1.13;;;14.30;99.90;;;;;;5061377;28;20408;-73
2022/09/15 07:13:21;;;;;;;12.27;1.50;;;14.40;99.90;;;;;;5057554;28;20049;-72
2022/09/15 07:15:57;;;;;;;5.85;0.88;;;14.40;99.90;;;;;;5061976;28;20123;-72
2022/09/15 07:18:23;;;;;;;7.72;1.05;;;14.40;99.90;;;;;;5058183;28;20045;-72
2022/09/15 07:20:49;;;;;;;8.15;1.17;;;14.50;99.90;;;;;;5054079;28;20056;-73
2022/09/15 07:23:16;;;;;;;7.90;1.50;;;14.50;99.90;;;;;;5073871;28;20051;-73
2022/09/15 07:25:44;;;;;;;5.95;1.15;;;14.50;99.90;;;;;;5060067;28;20452;-72
2022/09/15 07:28:18;;;;;;;5.55;1.05;;;14.60;99.90;;;;;;5061498;28;20467;-73
2022/09/15 07:30:49;;;;;;;7.60;1.20;;;14.70;99.90;;;;;;5069834;28;20516;-73
2022/09/15 07:33:15;;;;;;;10.47;1.10;;;14.70;99.90;;;;;;5063656;28;20401;-73
2022/09/15 07:35:41;;;;;;;5.78;1.13;;;14.80;99.90;;;;;;5046936;28;20314;-73
2022/09/15 07:38:07;;;;;;;8.88;1.27;;;15.00;99.90;;;;;;5064390;28;20055;-73
2022/09/15 07:40:33;;;;;;;6.80;1.02;;;15.10;99.90;;;;;;5062233;28;20037;-73
2022/09/15 07:42:59;;;;;;;5.72;1.02;;;15.10;99.90;;;;;;5063101;28;20051;-73
2022/09/15 07:45:24;;;;;;;7.68;1.23;;;15.20;99.90;;;;;;5046289;28;20202;-73
2022/09/15 07:47:50;;;;;;;6.18;0.98;;;15.30;99.90;;;;;;5060282;28;20032;-72
2022/09/15 07:50:16;;;;;;;4.88;0.93;;;15.30;99.90;;;;;;5045959;28;20048;-74
2022/09/15 07:52:41;;;;;;;12.73;1.17;;;15.30;99.90;;;;;;5062349;28;20057;-72
2022/09/15 07:55:08;;;;;;;8.32;1.38;;;15.30;99.90;;;;;;5072373;28;20056;-73
2022/09/15 07:57:34;;;;;;;5.88;1.00;;;15.30;99.90;;;;;;5045681;28;20049;-73
2022/09/15 08:00:01;;;;;;;4.57;0.80;;;15.30;99.90;;;;;;5060278;28;20065;-72
2022/09/15 08:02:26;;;;;;;5.97;1.23;;;15.30;99.90;;;;;;5063346;28;20954;-73
2022/09/15 08:04:52;;;;;;;5.30;1.05;;;15.30;99.90;;;;;;5061610;28;20453;-72
2022/09/15 08:07:18;;;;;;;10.43;1.25;;;15.40;99.90;;;;;;5060945;28;20052;-72
2022/09/15 08:09:44;;;;;;;6.68;0.90;;;15.40;99.90;;;;;;5063197;28;20078;-73
2022/09/15 08:12:10;;;;;;;7.68;1.20;;;15.40;99.90;;;;;;5046334;28;20052;-73
2022/09/15 08:14:35;;;;;;;6.82;1.10;;;15.40;99.90;;;;;;5062075;28;20032;-73
2022/09/15 08:17:03;;;;;;;4.55;0.82;;;15.50;99.90;;;;;;5053544;28;20056;-73
2022/09/15 08:19:30;;;;;;;6.60;1.10;;;15.60;99.90;;;;;;5061572;28;20405;-73
2022/09/15 08:21:56;;;;;;;6.88;1.20;;;15.70;99.90;;;;;;5075797;28;20067;-72
2022/09/15 08:24:22;;;;;;;3.42;0.82;;;15.70;99.90;;;;;;5059830;28;20040;-72
2022/09/15 08:26:48;;;;;;;6.55;1.30;;;15.80;99.90;;;;;;5062173;28;20502;-73
2022/09/15 08:29:14;;;;;;;10.13;1.05;;;15.80;99.90;;;;;;5061624;28;20045;-72
2022/09/15 08:31:40;;;;;;;11.40;1.52;;;15.90;99.90;;;;;;5061816;28;20033;-72
2022/09/15 08:34:06;;;;;;;11.57;1.30;;;15.80;99.90;;;;;;5060898;28;20102;-72
2022/09/15 08:36:32;;;;;;;9.50;1.60;;;15.80;99.90;;;;;;5060327;28;20072;-72
2022/09/15 08:38:59;;;;;;;9.18;1.40;;;15.70;99.90;;;;;;5052031;28;20057;-72
2022/09/15 08:41:47;;;;;;;6.93;1.40;;;15.80;99.90;;;;;;5059705;28;20067;-72
2022/09/15 08:44:23;;;;;;;9.85;1.92;;;15.80;99.90;;;;;;5057647;28;20417;-73
2022/09/15 08:46:49;;;;;;;9.70;1.70;;;15.70;99.90;;;;;;5062801;28;20063;-72
2022/09/15 08:49:23;;;;;;;8.07;1.60;;;15.70;99.90;;;;;;5062922;28;20040;-72
2022/09/15 08:51:51;;;;;;;9.63;1.30;;;15.60;99.90;;;;;;5063252;28;20052;-72
2022/09/15 08:54:24;;;;;;;11.57;1.65;;;15.60;99.90;;;;;;5061958;28;20066;-72
2022/09/15 08:56:50;;;;;;;10.98;1.42;;;15.60;99.90;;;;;;5060429;28;20041;-72
2022/09/15 08:59:18;;;;;;;10.60;1.90;;;15.60;99.90;;;;;;5061824;28;20079;-72
2022/09/15 09:02:02;;;;;;;8.38;1.20;;;15.50;99.90;;;;;;5076504;28;20051;-72
2022/09/15 09:04:55;;;;;;;8.02;1.50;;;15.60;99.90;;;;;;5058023;28;20473;-72
2022/09/15 09:07:43;;;;;;;9.18;1.50;;;15.60;99.90;;;;;;5061784;28;20068;-72
2022/09/15 09:10:21;;;;;;;6.07;1.45;;;15.70;99.90;;;;;;5059890;28;20560;-72
2022/09/15 09:12:50;;;;;;;6.15;1.02;;;15.80;99.90;;;;;;5060414;28;20665;-72
2022/09/15 09:15:53;;;;;;;9.27;1.30;;;15.80;99.90;;;;;;5056037;28;20081;-72
2022/09/15 09:18:48;;;;;;;10.82;2.65;;;15.80;99.90;;;;;;5074883;28;20063;-72
2022/09/15 09:21:20;;;;;;;7.47;1.20;;;15.70;99.90;;;;;;5041150;28;20139;-72
2022/09/15 09:23:54;;;;;;;9.63;1.40;;;15.80;99.90;;;;;;5061104;28;20051;-73
2022/09/15 09:26:20;;;;;;;6.93;1.73;;;15.80;99.90;;;;;;5059720;28;20091;-72
2022/09/15 09:29:00;;;;;;;7.93;1.27;;;15.80;99.90;;;;;;5060770;28;20056;-73
2022/09/15 09:31:28;;;;;;;6.93;1.00;;;15.80;99.90;;;;;;5059035;28;20159;-74
2022/09/15 09:34:12;;;;;;;5.88;1.13;;;15.70;99.90;;;;;;5058571;28;20040;-73
2022/09/15 09:36:38;;;;;;;7.28;1.40;;;15.70;99.90;;;;;;5060181;28;20553;-73
2022/09/15 09:39:04;;;;;;;6.30;1.13;;;15.70;99.90;;;;;;5055381;28;20052;-72
2022/09/15 09:41:35;;;;;;;5.10;0.85;;;15.70;99.90;;;;;;5059654;28;20707;-73
2022/09/15 09:44:03;;;;;;;6.75;1.77;;;15.70;99.90;;;;;;5060989;28;20127;-72
2022/09/15 09:46:30;;;;;;;9.10;1.30;;;15.70;99.90;;;;;;5060001;28;20105;-72
2022/09/15 09:49:11;;;;;;;7.35;1.30;;;15.70;99.90;;;;;;5057179;28;20044;-72
2022/09/15 09:51:58;;;;;;;5.28;1.10;;;15.70;99.90;;;;;;5054159;28;20924;-72
2022/09/15 09:54:27;;;;;;;8.25;1.73;;;15.80;99.90;;;;;;5055097;28;20056;-72
2022/09/15 09:56:54;;;;;;;7.20;1.10;;;15.80;99.90;;;;;;5057536;28;20040;-73
2022/09/15 09:59:42;;;;;;;4.93;0.70;;;15.90;99.90;;;;;;5060038;28;20052;-72
2022/09/15 10:02:10;;;;;;;5.35;0.80;;;16.00;99.90;;;;;;5075197;28;20051;-73
2022/09/15 10:04:43;;;;;;;10.00;1.00;;;16.00;99.90;;;;;;5055805;28;20095;-73
2022/09/15 10:07:09;;;;;;;4.22;1.25;;;16.00;99.90;;;;;;5057953;28;20599;-72
2022/09/15 10:09:36;;;;;;;7.05;1.75;;;16.00;99.90;;;;;;5058358;28;21281;-72
2022/09/15 10:12:04;;;;;;;5.30;0.90;;;16.10;99.90;;;;;;5062654;28;20051;-73
2022/09/15 10:14:40;;;;;;;7.40;0.93;;;16.20;99.90;;;;;;5061959;28;20557;-72
2022/09/15 10:17:11;;;;;;;8.70;1.33;;;16.30;99.90;;;;;;5062610;28;20040;-72
2022/09/15 10:19:51;;;;;;;5.38;1.08;;;16.40;99.90;;;;;;5061837;28;20556;-72
2022/09/15 10:22:38;;;;;;;6.03;1.20;;;16.50;99.90;;;;;;5061583;28;20048;-73
2022/09/15 10:25:31;;;;;;;7.53;1.50;;;16.60;99.90;;;;;;5077636;28;20048;-73
2022/09/15 10:28:20;;;;;;;7.90;1.30;;;16.70;99.90;;;;;;5059195;28;20040;-74
2022/09/15 10:31:03;;;;;;;5.50;0.80;;;16.70;99.90;;;;;;5058490;28;20043;-73
2022/09/15 10:33:35;;;;;;;5.63;1.08;;;16.60;99.90;;;;;;5057069;28;20072;-73
2022/09/15 10:36:05;;;;;;;7.57;1.20;;;16.60;99.90;;;;;;5054461;28;20455;-72
2022/09/15 10:38:39;;;;;;;5.40;1.20;;;16.50;99.90;;;;;;5042458;28;20379;-73
2022/09/15 10:41:27;;;;;;;7.85;1.10;;;16.40;99.90;;;;;;5075630;28;20091;-73
2022/09/15 10:44:18;;;;;;;7.63;1.20;;;16.30;99.90;;;;;;5057754;28;20052;-73
2022/09/15 10:47:21;;;;;;;4.38;0.77;;;16.30;99.90;;;;;;5075104;28;20048;-73
2022/09/15 10:50:14;;;;;;;4.68;0.80;;;16.30;99.90;;;;;;5059535;28;20048;-73
2022/09/15 10:52:49;;;;;;;4.28;0.75;;;16.30;99.90;;;;;;5056186;28;20039;-73
2022/09/15 10:55:24;;;;;;;2.97;0.60;;;16.30;99.90;;;;;;5057692;28;20045;-73
2022/09/15 10:58:22;;;;;;;5.55;1.00;;;16.40;99.90;;;;;;5074491;28;20122;-73
2022/09/15 11:01:14;;;;;;;4.53;0.60;;;16.40;99.90;;;;;;5061292;28;20651;-73
2022/09/15 11:03:49;;;;;;;5.20;0.80;;;16.50;99.90;;;;;;5079216;28;20110;-72
2022/09/15 11:06:28;;;;;;;2.00;0.70;;;16.50;99.90;;;;;;5082441;28;20534;-72
2022/09/15 11:09:20;;;;;;;4.93;0.80;;;16.60;99.90;;;;;;5048476;28;20040;-73
2022/09/15 11:12:15;;;;;;;5.38;0.80;;;16.60;99.90;;;;;;5047216;28;20033;-73
2022/09/15 11:14:53;;;;;;;5.85;0.95;;;16.70;99.90;;;;;;5062504;28;20052;-72
2022/09/15 11:17:25;;;;;;;7.43;1.00;;;16.80;99.90;;;;;;5046285;28;20055;-73
2022/09/15 11:20:16;;;;;;;9.57;1.30;;;16.80;99.90;;;;;;5064820;28;20125;-73
2022/09/15 11:22:55;;;;;;;4.35;0.98;;;16.90;99.90;;;;;;5064604;28;20128;-72
2022/09/15 11:25:26;;;;;;;5.03;0.80;;;17.00;99.90;;;;;;5063861;28;21943;-73
2022/09/15 11:28:14;;;;;;;9.30;1.52;;;17.00;99.90;;;;;;5062178;28;20127;-71
2022/09/15 11:30:52;;;;;;;7.43;1.10;;;17.10;99.90;;;;;;5046953;28;20094;-72
2022/09/15 11:33:24;;;;;;;6.97;0.95;;;17.20;99.90;;;;;;5063768;28;20539;-71
2022/09/15 11:35:58;;;;;;;4.43;0.80;;;17.20;99.90;;;;;;5064053;28;20056;-72
2022/09/15 11:38:36;;;;;;;5.40;0.82;;;17.30;99.90;;;;;;5064140;28;20068;-71
2022/09/15 11:41:42;;;;;;;3.47;0.60;;;17.40;99.90;;;;;;5062127;28;20413;-72
2022/09/15 11:44:20;;;;;;;3.72;0.85;;;17.40;99.90;;;;;;5061610;28;20553;-73
2022/09/15 11:46:56;;;;;;;5.30;0.80;;;17.40;99.90;;;;;;5045957;28;20398;-72
2022/09/15 11:49:44;;;;;;;3.83;0.90;;;17.40;99.90;;;;;;5044677;28;20052;-72
2022/09/15 11:52:32;;;;;;;6.30;0.90;;;17.50;99.90;;;;;;5018792;28;20394;-72
2022/09/15 11:55:19;;;;;;;6.05;0.75;;;17.50;99.90;;;;;;5062626;28;20374;-73
2022/09/15 11:58:17;;;;;;;5.50;1.55;;;17.50;99.90;;;;;;5063653;28;20478;-73
2022/09/15 12:00:56;;;;;;;8.55;1.13;;;17.60;99.90;;;;;;5034240;28;20049;-73
2022/09/15 12:03:43;;;;;;;5.03;1.10;;;17.60;99.90;;;;;;5063661;28;20070;-72
2022/09/15 12:06:20;;;;;;;4.95;0.80;;;17.70;99.90;;;;;;5060630;28;20526;-73
2022/09/15 12:09:02;;;;;;;4.22;0.88;;;17.80;99.90;;;;;;5063087;28;20044;-73
2022/09/15 12:11:37;;;;;;;3.22;0.70;;;17.80;99.90;;;;;;5073810;28;20080;-73
2022/09/15 12:14:04;;;;;;;4.07;0.90;;;17.70;99.90;;;;;;5061138;28;20127;-73
2022/09/15 12:16:32;;;;;;;7.90;0.93;;;17.60;99.90;;;;;;5060504;28;20124;-73
2022/09/15 12:19:06;;;;;;;5.82;0.73;;;17.60;99.90;;;;;;5072891;28;20056;-74
2022/09/15 12:21:44;;;;;;;4.50;0.85;;;17.50;99.90;;;;;;5062878;28;20052;-73
2022/09/15 12:24:37;;;;;;;5.05;0.88;;;17.50;99.90;;;;;;5063063;28;20044;-73
2022/09/15 12:27:03;;;;;;;7.13;1.00;;;17.40;99.90;;;;;;5077135;28;20045;-74
2022/09/15 12:29:46;;;;;;;3.45;0.80;;;17.30;99.90;;;;;;5046198;28;20048;-73
2022/09/15 12:32:39;;;;;;;5.20;1.00;;;17.10;99.90;;;;;;5046401;28;20412;-74
2022/09/15 12:35:14;;;;;;;5.97;0.77;;;17.00;99.90;;;;;;5062176;28;20161;-74
2022/09/15 12:37:51;;;;;;;5.57;1.00;;;17.00;99.90;;;;;;5063028;28;20060;-73
2022/09/15 12:40:38;;;;;;;5.93;0.95;;;17.00;99.90;;;;;;5062381;28;20102;-73
2022/09/15 12:43:10;;;;;;;3.45;0.80;;;16.90;99.90;;;;;;5059393;28;20059;-73
2022/09/15 12:45:37;;;;;;;5.20;0.80;;;16.90;99.90;;;;;;5064428;28;20040;-74
2022/09/15 12:48:21;;;;;;;5.53;0.77;;;16.90;99.90;;;;;;5046628;28;20033;-73
2022/09/15 12:50:57;;;;;;;4.97;0.75;;;17.00;99.90;;;;;;5063024;28;20037;-74
2022/09/15 12:53:33;;;;;;;3.00;0.75;;;17.10;99.90;;;;;;5065430;28;20039;-73
2022/09/15 12:56:05;;;;;;;4.30;0.80;;;17.20;99.90;;;;;;5048987;28;20049;-73
2022/09/15 12:58:38;;;;;;;4.60;0.70;;;17.10;99.90;;;;;;5047084;28;20070;-73
2022/09/15 13:01:23;;;;;;;2.67;0.65;;;17.20;99.90;;;;;;5060529;28;20110;-73
2022/09/15 13:03:48;;;;;;;7.85;1.00;;;17.20;99.90;;;;;;5062787;28;20063;-74
2022/09/15 13:06:25;;;;;;;4.68;1.05;;;17.20;99.90;;;;;;5061116;28;20045;-73
2022/09/15 13:09:00;;;;;;;5.18;0.80;;;17.30;99.90;;;;;;5061577;28;20036;-73
2022/09/15 13:11:37;;;;;;;8.77;1.42;;;17.30;99.90;;;;;;5062805;28;20052;-73
2022/09/15 13:14:02;;;;;;;9.05;1.27;;;17.40;99.90;;;;;;5062837;28;20477;-73